Time;durP1;ratioP1;P1;durP2;ratioP2;P2;SDS_P1;SDS_P2;PMS_P1;PMS_P2;Temp;Humidity;BMP_temperature;BMP_pressure;BME280_temperature;BME280_humidity;BME280_pressure;Samples;Min_cycle;Max_cycle;Signal;HPM_P1;HPM_P2
2022/07/13 00:01:46;;;;;;;338.43;189.40;;;;;;;;;;5073049;28;20215;-48
2022/07/13 00:04:12;;;;;;;353.07;195.60;;;;;;;;;;5073329;28;20584;-48
2022/07/13 00:06:38;;;;;;;336.70;192.00;;;;;;;;;;5071706;28;22841;-48
2022/07/13 00:09:04;;;;;;;386.87;209.10;;;;;;;;;;5071819;28;20206;-51
2022/07/13 00:11:30;;;;;;;381.33;210.35;;;;;;;;;;5061933;28;20701;-51
2022/07/13 00:13:55;;;;;;;354.65;196.70;;;;;;;;;;5064197;28;20218;-52
2022/07/13 00:16:22;;;;;;;424.00;227.05;;;;;;;;;;5062755;28;20335;-51
2022/07/13 00:18:48;;;;;;;353.13;191.88;;;;;;;;;;5063730;28;20276;-51
2022/07/13 00:21:14;;;;;;;350.35;193.70;;;;;;;;;;5067735;28;20187;-52
2022/07/13 00:23:40;;;;;;;342.38;190.68;;;;;;;;;;5062108;28;20272;-52
2022/07/13 00:26:06;;;;;;;347.05;199.90;;;;;;;;;;5063697;28;20248;-51
2022/07/13 00:28:32;;;;;;;369.20;205.90;;;;;;;;;;5058453;28;20707;-51
2022/07/13 00:30:58;;;;;;;384.27;212.68;;;;;;;;;;5061026;28;20272;-52
2022/07/13 00:33:24;;;;;;;400.48;215.48;;;;;;;;;;5058826;28;20191;-52
2022/07/13 00:35:50;;;;;;;347.05;190.25;;;;;;;;;;5063021;28;20198;-52
2022/07/13 00:38:16;;;;;;;381.33;208.75;;;;;;;;;;5062638;28;20322;-52
2022/07/13 00:40:41;;;;;;;360.25;197.73;;;;;;;;;;5059055;28;23587;-52
2022/07/13 00:43:07;;;;;;;337.92;182.00;;;;;;;;;;5062284;28;20714;-52
2022/07/13 00:45:34;;;;;;;394.63;205.82;;;;;;;;;;5062538;28;20175;-52
2022/07/13 00:48:00;;;;;;;358.83;194.15;;;;;;;;;;5062907;28;20222;-52
2022/07/13 00:50:26;;;;;;;326.90;178.77;;;;;;;;;;5058858;28;20219;-52
2022/07/13 00:52:52;;;;;;;344.42;183.55;;;;;;;;;;5063880;28;20558;-52
2022/07/13 00:55:18;;;;;;;372.63;196.25;;;;;;;;;;5064370;28;20246;-52
2022/07/13 00:57:45;;;;;;;344.33;188.33;;;;;;;;;;5063918;28;20226;-52
2022/07/13 01:00:12;;;;;;;344.90;182.27;;;;;;;;;;5070070;28;20226;-48
2022/07/13 01:02:38;;;;;;;397.90;193.47;;;;;;;;;;5050665;28;20214;-50
2022/07/13 01:05:04;;;;;;;365.73;190.18;;;;;;;;;;5052014;28;20211;-50
2022/07/13 01:07:32;;;;;;;425.13;205.75;;;;;;;;;;5051203;28;20255;-50
2022/07/13 01:09:58;;;;;;;419.05;208.35;;;;;;;;;;5050057;28;20215;-50
2022/07/13 01:12:24;;;;;;;424.60;209.33;;;;;;;;;;5047585;28;20199;-50
2022/07/13 01:14:50;;;;;;;404.23;198.77;;;;;;;;;;5052261;28;20263;-49
2022/07/13 01:17:16;;;;;;;454.83;227.60;;;;;;;;;;5047588;28;20673;-50
2022/07/13 01:19:42;;;;;;;335.27;177.40;;;;;;;;;;5067419;28;20234;-49
2022/07/13 01:22:08;;;;;;;332.85;173.75;;;;;;;;;;5071973;28;20238;-48
2022/07/13 01:24:35;;;;;;;328.55;172.25;;;;;;;;;;5072198;28;20171;-48
2022/07/13 01:27:01;;;;;;;343.50;179.03;;;;;;;;;;5072165;28;20195;-48
2022/07/13 01:29:27;;;;;;;331.73;172.27;;;;;;;;;;5071907;28;20225;-49
2022/07/13 01:31:57;;;;;;;334.10;172.37;;;;;;;;;;5071807;28;20211;-49
2022/07/13 01:34:23;;;;;;;333.50;170.00;;;;;;;;;;5071991;28;20215;-49
2022/07/13 01:36:49;;;;;;;331.90;171.07;;;;;;;;;;5071416;28;20226;-49
2022/07/13 01:39:15;;;;;;;332.37;170.53;;;;;;;;;;5072322;28;20171;-48
2022/07/13 01:41:41;;;;;;;327.40;167.97;;;;;;;;;;5071721;28;20257;-49
2022/07/13 01:44:07;;;;;;;330.57;166.03;;;;;;;;;;5071463;28;20215;-49
2022/07/13 01:46:33;;;;;;;327.07;163.53;;;;;;;;;;5071275;28;20355;-49
2022/07/13 01:48:59;;;;;;;345.50;175.90;;;;;;;;;;5071309;28;20241;-49
2022/07/13 01:51:25;;;;;;;328.37;166.17;;;;;;;;;;5060066;28;20187;-49
2022/07/13 01:53:51;;;;;;;334.27;173.20;;;;;;;;;;5055709;28;20852;-52
2022/07/13 01:56:17;;;;;;;325.50;166.67;;;;;;;;;;5062653;28;20233;-49
2022/07/13 01:58:43;;;;;;;401.40;194.27;;;;;;;;;;5059700;28;20284;-48
2022/07/13 02:01:09;;;;;;;337.67;169.47;;;;;;;;;;5083142;28;20306;-48
2022/07/13 02:03:35;;;;;;;350.33;176.60;;;;;;;;;;5071079;28;20171;-48
2022/07/13 02:06:01;;;;;;;336.43;171.67;;;;;;;;;;5071423;28;20702;-48
2022/07/13 02:08:27;;;;;;;355.97;177.57;;;;;;;;;;5064112;28;20223;-51
2022/07/13 02:10:53;;;;;;;375.23;182.60;;;;;;;;;;5062648;28;20214;-51
2022/07/13 02:13:21;;;;;;;379.83;181.40;;;;;;;;;;5066492;28;20293;-51
2022/07/13 02:15:47;;;;;;;357.50;176.83;;;;;;;;;;5060759;28;20305;-51
2022/07/13 02:18:13;;;;;;;390.00;184.10;;;;;;;;;;5065060;28;20187;-50
2022/07/13 02:20:39;;;;;;;420.00;199.47;;;;;;;;;;5054101;28;20238;-50
2022/07/13 02:23:06;;;;;;;438.60;204.10;;;;;;;;;;5049186;28;20309;-50
2022/07/13 02:25:37;;;;;;;391.13;187.53;;;;;;;;;;5050105;28;20315;-50
2022/07/13 02:28:03;;;;;;;390.70;188.77;;;;;;;;;;5052050;28;20226;-50
2022/07/13 02:30:29;;;;;;;386.30;189.47;;;;;;;;;;5052396;28;20668;-50
2022/07/13 02:32:55;;;;;;;369.50;182.23;;;;;;;;;;5054185;28;20183;-50
2022/07/13 02:35:20;;;;;;;451.53;209.07;;;;;;;;;;5046699;28;20308;-51
2022/07/13 02:37:46;;;;;;;397.10;199.43;;;;;;;;;;5053920;28;20250;-50
2022/07/13 02:40:12;;;;;;;380.43;187.97;;;;;;;;;;5051211;28;20218;-51
2022/07/13 02:42:39;;;;;;;397.73;192.07;;;;;;;;;;5051315;28;20230;-50
2022/07/13 02:45:06;;;;;;;388.40;193.17;;;;;;;;;;5056063;28;20580;-49
2022/07/13 02:47:32;;;;;;;325.83;168.17;;;;;;;;;;5070300;28;20634;-49
2022/07/13 02:49:58;;;;;;;330.83;171.77;;;;;;;;;;5068995;28;20218;-49
2022/07/13 02:52:24;;;;;;;330.23;169.07;;;;;;;;;;5064769;28;20224;-49
2022/07/13 02:54:50;;;;;;;330.27;168.40;;;;;;;;;;5055491;28;20219;-49
2022/07/13 02:57:16;;;;;;;359.73;175.57;;;;;;;;;;5064354;28;20195;-51
2022/07/13 02:59:42;;;;;;;326.07;162.83;;;;;;;;;;5064555;28;20226;-51
2022/07/13 03:02:08;;;;;;;339.43;170.80;;;;;;;;;;5059899;28;20249;-51
2022/07/13 03:04:34;;;;;;;344.43;171.53;;;;;;;;;;5060622;28;20753;-51
2022/07/13 03:07:01;;;;;;;333.60;178.20;;;;;;;;;;5059768;28;20214;-52
2022/07/13 03:09:27;;;;;;;353.97;183.20;;;;;;;;;;5062002;28;20709;-51
2022/07/13 03:11:53;;;;;;;343.67;177.43;;;;;;;;;;5065890;28;20286;-51
2022/07/13 03:14:19;;;;;;;349.60;170.37;;;;;;;;;;5060572;28;20224;-51
2022/07/13 03:16:45;;;;;;;343.23;175.43;;;;;;;;;;5063290;28;20300;-51
2022/07/13 03:19:11;;;;;;;340.57;175.43;;;;;;;;;;5063789;28;20222;-51
2022/07/13 03:21:37;;;;;;;356.60;181.90;;;;;;;;;;5063134;28;20194;-51
2022/07/13 03:24:03;;;;;;;350.17;179.30;;;;;;;;;;5066023;28;20655;-51
2022/07/13 03:26:29;;;;;;;359.87;186.60;;;;;;;;;;5059352;28;20222;-51
2022/07/13 03:28:55;;;;;;;348.80;182.43;;;;;;;;;;5067073;28;20321;-51
2022/07/13 03:31:22;;;;;;;355.23;181.00;;;;;;;;;;5065036;28;20246;-51
2022/07/13 03:33:48;;;;;;;353.20;181.40;;;;;;;;;;5063937;28;20693;-51
2022/07/13 03:36:14;;;;;;;353.67;177.40;;;;;;;;;;5062227;28;20211;-51
2022/07/13 03:38:40;;;;;;;352.73;176.83;;;;;;;;;;5057629;28;20257;-51
2022/07/13 03:41:06;;;;;;;365.87;176.97;;;;;;;;;;5061755;28;20237;-51
2022/07/13 03:43:32;;;;;;;317.60;161.90;;;;;;;;;;5064009;28;20221;-51
2022/07/13 03:45:58;;;;;;;347.93;178.77;;;;;;;;;;5061455;28;20222;-51
2022/07/13 03:48:24;;;;;;;354.10;183.40;;;;;;;;;;5060386;28;20203;-51
2022/07/13 03:50:50;;;;;;;368.33;184.87;;;;;;;;;;5062931;28;20255;-51
2022/07/13 03:53:16;;;;;;;356.30;182.10;;;;;;;;;;5060241;28;20248;-52
2022/07/13 03:55:43;;;;;;;364.67;179.13;;;;;;;;;;5063806;28;20263;-52
2022/07/13 03:58:10;;;;;;;342.80;170.23;;;;;;;;;;5064771;28;20219;-51
2022/07/13 04:00:36;;;;;;;356.80;177.32;;;;;;;;;;5065781;28;20187;-52
2022/07/13 04:03:02;;;;;;;364.40;181.43;;;;;;;;;;5062698;28;20179;-52
2022/07/13 04:05:28;;;;;;;353.63;176.43;;;;;;;;;;5062886;28;20203;-52
2022/07/13 04:07:54;;;;;;;352.10;177.50;;;;;;;;;;5061912;28;20225;-52
2022/07/13 04:10:20;;;;;;;364.27;182.80;;;;;;;;;;5063570;28;20352;-52
2022/07/13 04:12:46;;;;;;;354.20;172.97;;;;;;;;;;5062668;28;20622;-52
2022/07/13 04:15:12;;;;;;;379.43;186.53;;;;;;;;;;5065142;28;20190;-51
2022/07/13 04:17:38;;;;;;;359.53;180.53;;;;;;;;;;5063775;28;20592;-52
2022/07/13 04:20:05;;;;;;;374.90;186.83;;;;;;;;;;5062376;28;20299;-51
2022/07/13 04:22:31;;;;;;;354.67;180.27;;;;;;;;;;5065555;28;20219;-51
2022/07/13 04:24:57;;;;;;;362.17;182.10;;;;;;;;;;5064766;28;22447;-51
2022/07/13 04:27:23;;;;;;;337.57;173.27;;;;;;;;;;5068562;28;20217;-51
2022/07/13 04:29:49;;;;;;;340.47;172.40;;;;;;;;;;5063772;28;20275;-51
2022/07/13 04:32:15;;;;;;;365.80;180.50;;;;;;;;;;5065333;28;20210;-51
2022/07/13 04:34:41;;;;;;;375.75;184.80;;;;;;;;;;5066562;28;20269;-52
2022/07/13 04:37:06;;;;;;;342.45;170.68;;;;;;;;;;5065892;28;20718;-51
2022/07/13 04:39:32;;;;;;;355.07;175.37;;;;;;;;;;5063117;28;20186;-52
2022/07/13 04:42:02;;;;;;;346.02;172.77;;;;;;;;;;5063737;28;20207;-51
2022/07/13 04:44:28;;;;;;;345.20;173.93;;;;;;;;;;5064924;28;20234;-51
2022/07/13 04:46:54;;;;;;;333.80;175.30;;;;;;;;;;5061744;28;20634;-51
2022/07/13 04:49:20;;;;;;;354.60;186.13;;;;;;;;;;5066506;28;20288;-52
2022/07/13 04:51:47;;;;;;;358.63;180.95;;;;;;;;;;5062869;28;20219;-52
2022/07/13 04:54:15;;;;;;;373.97;188.07;;;;;;;;;;5065405;28;20239;-52
2022/07/13 04:56:41;;;;;;;368.13;195.10;;;;;;;;;;5067897;28;20264;-52
2022/07/13 04:59:07;;;;;;;328.87;180.60;;;;;;;;;;5069905;28;20219;-51
2022/07/13 05:01:33;;;;;;;349.43;179.17;;;;;;;;;;5066236;28;20214;-52
2022/07/13 05:03:59;;;;;;;348.35;174.25;;;;;;;;;;5063665;28;20690;-51
2022/07/13 05:06:25;;;;;;;361.57;183.37;;;;;;;;;;5076851;28;20215;-52
2022/07/13 05:08:51;;;;;;;371.93;193.00;;;;;;;;;;5067531;28;20211;-52
2022/07/13 05:11:17;;;;;;;354.73;186.27;;;;;;;;;;5067560;28;20295;-52
2022/07/13 05:13:42;;;;;;;344.23;190.07;;;;;;;;;;5066874;28;20211;-52
2022/07/13 05:16:08;;;;;;;346.17;192.20;;;;;;;;;;5066951;28;20349;-51
2022/07/13 05:18:34;;;;;;;396.90;208.93;;;;;;;;;;5064356;28;20210;-51
2022/07/13 05:21:01;;;;;;;365.50;198.23;;;;;;;;;;5062803;28;20265;-52
2022/07/13 05:23:27;;;;;;;381.92;202.52;;;;;;;;;;5062314;28;20369;-52
2022/07/13 05:25:53;;;;;;;348.53;195.07;;;;;;;;;;5066022;28;20305;-53
2022/07/13 05:28:19;;;;;;;357.30;195.57;;;;;;;;;;5066670;28;20227;-52
2022/07/13 05:30:45;;;;;;;361.27;188.15;;;;;;;;;;5064613;28;20238;-53
2022/07/13 05:33:11;;;;;;;346.90;190.90;;;;;;;;;;5062312;28;20194;-53
2022/07/13 05:35:36;;;;;;;341.65;192.48;;;;;;;;;;5064971;28;20218;-53
2022/07/13 05:38:03;;;;;;;363.83;201.43;;;;;;;;;;5062032;28;20302;-53
2022/07/13 05:40:28;;;;;;;351.40;190.75;;;;;;;;;;5064584;28;20698;-53
2022/07/13 05:42:54;;;;;;;342.33;179.52;;;;;;;;;;5064564;28;20225;-53
2022/07/13 05:45:20;;;;;;;377.63;198.25;;;;;;;;;;5062004;28;20589;-53
2022/07/13 05:47:46;;;;;;;383.65;201.48;;;;;;;;;;5065965;28;20218;-52
2022/07/13 05:50:13;;;;;;;381.03;211.10;;;;;;;;;;5065947;28;20281;-53
2022/07/13 05:52:39;;;;;;;359.58;198.65;;;;;;;;;;5064934;28;20216;-53
2022/07/13 05:55:05;;;;;;;342.73;193.90;;;;;;;;;;5062002;28;20273;-53
2022/07/13 05:57:32;;;;;;;362.30;206.88;;;;;;;;;;5067537;28;20210;-52
2022/07/13 05:59:58;;;;;;;371.10;208.32;;;;;;;;;;5064219;28;20179;-53
2022/07/13 06:02:24;;;;;;;409.42;220.65;;;;;;;;;;5064555;28;20233;-52
2022/07/13 06:04:50;;;;;;;525.28;257.85;;;;;;;;;;5044070;28;20234;-53
2022/07/13 06:07:16;;;;;;;446.92;230.68;;;;;;;;;;5054782;28;20884;-52
2022/07/13 06:09:42;;;;;;;359.23;196.05;;;;;;;;;;5060459;28;20621;-53
2022/07/13 06:12:08;;;;;;;358.25;193.70;;;;;;;;;;5062113;28;20191;-52
2022/07/13 06:14:33;;;;;;;382.20;211.13;;;;;;;;;;5054467;28;20214;-52
2022/07/13 06:17:00;;;;;;;360.38;208.30;;;;;;;;;;5060474;28;20216;-52
2022/07/13 06:19:26;;;;;;;360.77;199.77;;;;;;;;;;5057622;28;20291;-52
2022/07/13 06:21:52;;;;;;;346.80;203.93;;;;;;;;;;5059085;28;20214;-52
2022/07/13 06:24:17;;;;;;;368.98;206.45;;;;;;;;;;5060370;28;20211;-52
2022/07/13 06:26:44;;;;;;;361.65;203.88;;;;;;;;;;5063816;28;20242;-52
2022/07/13 06:29:10;;;;;;;396.52;218.45;;;;;;;;;;5059870;28;20218;-52
2022/07/13 06:31:36;;;;;;;356.02;204.02;;;;;;;;;;5058984;28;20587;-52
2022/07/13 06:34:02;;;;;;;384.08;224.10;;;;;;;;;;5058097;28;20317;-53
2022/07/13 06:36:28;;;;;;;418.60;239.93;;;;;;;;;;5056923;28;20289;-53
2022/07/13 06:38:54;;;;;;;405.42;234.68;;;;;;;;;;5054483;28;20179;-51
2022/07/13 06:41:20;;;;;;;362.42;218.75;;;;;;;;;;5063947;28;20211;-52
2022/07/13 06:43:46;;;;;;;386.95;228.52;;;;;;;;;;5054144;28;20211;-52
2022/07/13 06:46:12;;;;;;;424.95;246.80;;;;;;;;;;5052925;28;20213;-52
2022/07/13 06:48:38;;;;;;;432.45;248.45;;;;;;;;;;5057401;28;20238;-52
2022/07/13 06:51:04;;;;;;;419.80;236.77;;;;;;;;;;5048255;28;20662;-52
2022/07/13 06:53:30;;;;;;;404.33;231.90;;;;;;;;;;5059004;28;20390;-52
2022/07/13 06:55:56;;;;;;;429.95;247.60;;;;;;;;;;5050880;28;20348;-52
2022/07/13 06:58:22;;;;;;;415.65;234.15;;;;;;;;;;5068827;28;20351;-52
2022/07/13 07:00:49;;;;;;;384.15;231.52;;;;;;;;;;5052291;28;20229;-52
2022/07/13 07:03:15;;;;;;;445.73;247.82;;;;;;;;;;5051403;28;20631;-52
2022/07/13 07:05:41;;;;;;;441.27;246.02;;;;;;;;;;5051214;28;20297;-52
2022/07/13 07:08:07;;;;;;;379.73;223.55;;;;;;;;;;5058839;28;20226;-52
2022/07/13 07:10:33;;;;;;;408.45;234.88;;;;;;;;;;5052458;28;20206;-52
2022/07/13 07:12:59;;;;;;;403.65;233.30;;;;;;;;;;5055644;28;20214;-52
2022/07/13 07:15:25;;;;;;;396.15;230.27;;;;;;;;;;5055160;28;20248;-52
2022/07/13 07:17:51;;;;;;;373.42;223.43;;;;;;;;;;5055054;28;20289;-52
2022/07/13 07:20:17;;;;;;;422.00;235.82;;;;;;;;;;5049154;28;20218;-52
2022/07/13 07:22:45;;;;;;;368.65;219.25;;;;;;;;;;5044604;28;20223;-53
2022/07/13 07:25:11;;;;;;;373.70;226.23;;;;;;;;;;5060111;28;20241;-53
2022/07/13 07:27:39;;;;;;;398.35;240.23;;;;;;;;;;5054122;28;20215;-52
2022/07/13 07:30:05;;;;;;;442.05;263.48;;;;;;;;;;5052073;28;20648;-52
2022/07/13 07:32:31;;;;;;;373.70;237.85;;;;;;;;;;5056453;28;20207;-52
2022/07/13 07:34:57;;;;;;;435.98;265.08;;;;;;;;;;5049850;28;20301;-52
2022/07/13 07:37:23;;;;;;;435.20;250.40;;;;;;;;;;5051008;28;20249;-52
2022/07/13 07:39:49;;;;;;;390.02;242.60;;;;;;;;;;5057762;28;20302;-52
2022/07/13 07:42:15;;;;;;;357.90;224.25;;;;;;;;;;5056625;28;20184;-52
2022/07/13 07:44:41;;;;;;;394.83;236.77;;;;;;;;;;5055081;28;20294;-52
2022/07/13 07:47:08;;;;;;;368.27;232.52;;;;;;;;;;5047470;28;20211;-52
2022/07/13 07:49:34;;;;;;;398.02;238.95;;;;;;;;;;5054343;28;20222;-51
2022/07/13 07:52:00;;;;;;;452.63;261.38;;;;;;;;;;5053541;28;20214;-51
2022/07/13 07:54:26;;;;;;;401.70;240.25;;;;;;;;;;5062553;28;20237;-51
2022/07/13 07:56:52;;;;;;;375.63;233.23;;;;;;;;;;5061916;28;20207;-52
2022/07/13 07:59:19;;;;;;;360.98;221.85;;;;;;;;;;5056822;28;20215;-51
2022/07/13 08:01:45;;;;;;;418.52;257.38;;;;;;;;;;5052499;28;20219;-52
2022/07/13 08:04:11;;;;;;;364.83;222.35;;;;;;;;;;5055824;28;20223;-52
2022/07/13 08:06:38;;;;;;;411.13;248.82;;;;;;;;;;5050607;28;20438;-52
2022/07/13 08:09:04;;;;;;;381.55;233.40;;;;;;;;;;5061372;28;20547;-52
2022/07/13 08:11:30;;;;;;;452.38;254.68;;;;;;;;;;5054788;28;20269;-52
2022/07/13 08:13:56;;;;;;;425.67;257.45;;;;;;;;;;5051916;28;20210;-52
2022/07/13 08:16:23;;;;;;;455.95;269.35;;;;;;;;;;5054344;28;20402;-52
2022/07/13 08:18:49;;;;;;;394.90;246.60;;;;;;;;;;5055511;28;20225;-52
2022/07/13 08:21:15;;;;;;;453.90;272.20;;;;;;;;;;5054003;28;20650;-52
2022/07/13 08:23:54;;;;;;;374.17;234.43;;;;;;;;;;5063209;28;20298;-51
2022/07/13 08:26:25;;;;;;;357.30;232.52;;;;;;;;;;5074638;28;20207;-52
2022/07/13 08:28:51;;;;;;;348.33;220.95;;;;;;;;;;5057007;28;20226;-52
2022/07/13 08:31:17;;;;;;;359.10;225.23;;;;;;;;;;5067643;28;20215;-54
2022/07/13 08:39:13;;;;;;;371.77;229.25;;;;;;;;;;5066147;28;20258;-54
2022/07/13 08:41:40;;;;;;;328.58;215.02;;;;;;;;;;5071200;28;20211;-53
2022/07/13 08:44:06;;;;;;;350.45;227.23;;;;;;;;;;5069073;28;20238;-54
2022/07/13 08:46:32;;;;;;;365.83;241.82;;;;;;;;;;5064964;28;20248;-54
2022/07/13 08:48:58;;;;;;;385.58;244.48;;;;;;;;;;5069866;28;20229;-54
2022/07/13 08:51:25;;;;;;;370.70;243.95;;;;;;;;;;5059541;28;20269;-54
2022/07/13 08:53:52;;;;;;;346.75;226.52;;;;;;;;;;5067683;28;20274;-53
2022/07/13 08:56:18;;;;;;;346.35;228.75;;;;;;;;;;5070198;28;20250;-53
2022/07/13 08:58:45;;;;;;;363.42;239.05;;;;;;;;;;5070192;28;20679;-53
2022/07/13 09:01:11;;;;;;;363.38;244.25;;;;;;;;;;5068239;28;20301;-53
2022/07/13 09:03:37;;;;;;;370.30;241.65;;;;;;;;;;5065360;28;20584;-54
2022/07/13 09:06:04;;;;;;;365.15;239.18;;;;;;;;;;5071275;28;20213;-54
2022/07/13 09:08:30;;;;;;;353.00;236.82;;;;;;;;;;5068964;28;20218;-54
2022/07/13 09:10:57;;;;;;;348.42;233.40;;;;;;;;;;5069674;28;20206;-53
2022/07/13 09:13:40;;;;;;;362.70;240.85;;;;;;;;;;5065703;28;20219;-53
2022/07/13 09:16:13;;;;;;;331.00;224.63;;;;;;;;;;5067192;28;20621;-53
2022/07/13 09:18:40;;;;;;;387.08;252.05;;;;;;;;;;5062307;28;20221;-53
2022/07/13 09:21:06;;;;;;;349.58;234.75;;;;;;;;;;5065741;28;20244;-54
2022/07/13 09:23:32;;;;;;;366.42;240.05;;;;;;;;;;5071296;28;20219;-53
2022/07/13 09:25:58;;;;;;;372.15;245.18;;;;;;;;;;5067024;28;20223;-53
2022/07/13 09:28:24;;;;;;;360.02;239.48;;;;;;;;;;5069531;28;20271;-54
2022/07/13 09:30:50;;;;;;;407.08;259.58;;;;;;;;;;5065443;28;20253;-54
2022/07/13 09:33:32;;;;;;;372.35;244.75;;;;;;;;;;5066831;28;20218;-54
2022/07/13 09:35:58;;;;;;;335.35;228.60;;;;;;;;;;5064111;28;20219;-54
2022/07/13 09:38:31;;;;;;;351.42;241.23;;;;;;;;;;5069861;28;20210;-54
2022/07/13 09:40:57;;;;;;;355.77;244.25;;;;;;;;;;5069250;28;20227;-54
2022/07/13 09:46:08;;;;;;;370.85;249.13;;;;;;;;;;5066134;28;20254;-54
2022/07/13 09:48:36;;;;;;;376.63;249.35;;;;;;;;;;5063663;28;20234;-53
2022/07/13 09:51:01;;;;;;;374.40;250.30;;;;;;;;;;5067642;28;20655;-54
2022/07/13 09:53:29;;;;;;;365.60;239.50;;;;;;;;;;5068417;28;20211;-54
2022/07/13 09:55:57;;;;;;;362.92;238.52;;;;;;;;;;5068852;28;20214;-54
2022/07/13 09:58:27;;;;;;;356.50;239.68;;;;;;;;;;5064169;28;20199;-54
2022/07/13 10:00:54;;;;;;;366.35;242.07;;;;;;;;;;5068033;28;20230;-54
2022/07/13 10:03:21;;;;;;;382.02;252.18;;;;;;;;;;5066000;28;20176;-54
2022/07/13 10:05:47;;;;;;;376.10;246.35;;;;;;;;;;5068180;28;20175;-54
2022/07/13 10:08:15;;;;;;;375.23;247.05;;;;;;;;;;5067220;28;20214;-53
2022/07/13 10:10:41;;;;;;;354.00;239.13;;;;;;;;;;5065001;28;20210;-54
2022/07/13 10:13:07;;;;;;;363.30;249.77;;;;;;;;;;5063056;28;20631;-54
2022/07/13 10:15:34;;;;;;;370.13;250.15;;;;;;;;;;5066365;28;20643;-55
2022/07/13 10:18:01;;;;;;;440.15;276.98;;;;;;;;;;5059558;28;20574;-53
2022/07/13 10:20:29;;;;;;;428.73;293.48;;;;;;;;;;5050539;28;20225;-53
2022/07/13 10:22:54;;;;;;;394.08;261.10;;;;;;;;;;5056144;28;20299;-53
2022/07/13 10:25:24;;;;;;;356.67;250.38;;;;;;;;;;5064234;28;20825;-54
2022/07/13 10:28:05;;;;;;;437.55;287.23;;;;;;;;;;5056249;28;20245;-54
2022/07/13 10:30:31;;;;;;;428.30;285.45;;;;;;;;;;5040805;28;20555;-54
2022/07/13 10:33:17;;;;;;;390.13;267.92;;;;;;;;;;5047733;28;20187;-54
2022/07/13 10:35:48;;;;;;;470.48;299.08;;;;;;;;;;5047522;28;20242;-54
2022/07/13 10:38:18;;;;;;;439.02;283.65;;;;;;;;;;5044074;28;20272;-54
2022/07/13 10:40:44;;;;;;;447.58;290.25;;;;;;;;;;5047786;28;20214;-54
2022/07/13 10:43:11;;;;;;;460.15;293.27;;;;;;;;;;5047384;28;20748;-54
2022/07/13 10:45:44;;;;;;;411.40;275.83;;;;;;;;;;5049194;28;20179;-54
2022/07/13 10:48:22;;;;;;;409.20;277.58;;;;;;;;;;5045107;28;20214;-54
2022/07/13 10:50:48;;;;;;;455.90;298.95;;;;;;;;;;5037628;28;20230;-54
2022/07/13 10:53:19;;;;;;;429.58;283.55;;;;;;;;;;5046984;28;20222;-54
2022/07/13 10:55:47;;;;;;;540.20;327.00;;;;;;;;;;5037994;28;21196;-54
2022/07/13 10:58:35;;;;;;;486.10;303.27;;;;;;;;;;5047372;28;20230;-53
2022/07/13 11:01:08;;;;;;;485.88;304.60;;;;;;;;;;5050385;28;20591;-53
2022/07/13 11:03:44;;;;;;;505.60;310.38;;;;;;;;;;5031860;28;21798;-54
2022/07/13 11:06:15;;;;;;;443.98;302.90;;;;;;;;;;5045531;28;20562;-53
2022/07/13 11:08:41;;;;;;;375.90;279.10;;;;;;;;;;5059521;28;20217;-55
2022/07/13 11:11:15;;;;;;;394.48;299.77;;;;;;;;;;5051483;28;20213;-53
2022/07/13 11:13:44;;;;;;;485.27;337.15;;;;;;;;;;5038855;28;21082;-55
2022/07/13 11:16:10;;;;;;;435.55;322.08;;;;;;;;;;5046379;28;20632;-55
2022/07/13 11:18:37;;;;;;;442.75;318.38;;;;;;;;;;5053929;28;20182;-55
2022/07/13 11:21:15;;;;;;;426.02;314.10;;;;;;;;;;5046784;28;20191;-56
2022/07/13 11:26:38;;;;;;;408.92;303.48;;;;;;;;;;5052851;28;20253;-56
2022/07/13 11:29:19;;;;;;;468.10;323.63;;;;;;;;;;5042404;28;20372;-55
2022/07/13 11:31:45;;;;;;;512.80;347.95;;;;;;;;;;5044482;28;20221;-54
2022/07/13 11:34:11;;;;;;;465.33;333.95;;;;;;;;;;5053171;28;20935;-54
2022/07/13 11:36:40;;;;;;;461.50;336.95;;;;;;;;;;5051745;28;20623;-55
2022/07/13 11:39:21;;;;;;;443.73;322.58;;;;;;;;;;5049491;28;20183;-53
2022/07/13 11:41:47;;;;;;;423.80;317.73;;;;;;;;;;5058905;28;20202;-54
2022/07/13 11:44:13;;;;;;;414.88;314.35;;;;;;;;;;5056100;28;20237;-54
2022/07/13 11:46:39;;;;;;;426.38;328.70;;;;;;;;;;5051721;28;20226;-56
2022/07/13 11:49:07;;;;;;;517.60;365.30;;;;;;;;;;5046913;28;20280;-54
2022/07/13 11:51:33;;;;;;;529.95;370.60;;;;;;;;;;5037670;28;20255;-55
2022/07/13 11:54:16;;;;;;;414.13;323.30;;;;;;;;;;5054572;28;20635;-56
2022/07/13 11:56:56;;;;;;;465.58;335.60;;;;;;;;;;5052409;28;20294;-53
2022/07/13 11:59:38;;;;;;;460.25;335.73;;;;;;;;;;5048531;28;20230;-54
2022/07/13 12:02:08;;;;;;;450.60;335.52;;;;;;;;;;5046782;28;20215;-56
2022/07/13 12:04:34;;;;;;;443.25;333.05;;;;;;;;;;5053538;28;20627;-55
2022/07/13 12:07:19;;;;;;;390.92;314.42;;;;;;;;;;5054576;28;20234;-54
2022/07/13 12:09:51;;;;;;;450.48;340.85;;;;;;;;;;5044982;28;20249;-54
2022/07/13 12:12:18;;;;;;;456.65;337.83;;;;;;;;;;5052937;28;20183;-55
2022/07/13 12:14:44;;;;;;;423.17;325.77;;;;;;;;;;5050540;28;21700;-54
2022/07/13 12:17:10;;;;;;;428.38;325.42;;;;;;;;;;5044143;28;20218;-54
2022/07/13 12:19:37;;;;;;;468.63;336.73;;;;;;;;;;5048290;28;20279;-55
2022/07/13 12:22:05;;;;;;;455.15;329.38;;;;;;;;;;5052852;28;20229;-55
2022/07/13 12:24:31;;;;;;;435.33;327.88;;;;;;;;;;5058920;28;20179;-53
2022/07/13 12:26:57;;;;;;;432.23;324.63;;;;;;;;;;5048284;28;20289;-54
2022/07/13 12:29:27;;;;;;;461.70;335.02;;;;;;;;;;5050793;28;20299;-55
2022/07/13 12:31:53;;;;;;;404.02;310.15;;;;;;;;;;5043902;28;20642;-55
2022/07/13 12:34:20;;;;;;;536.38;364.08;;;;;;;;;;5044163;28;20237;-53
2022/07/13 12:36:50;;;;;;;481.70;348.45;;;;;;;;;;5035832;28;20218;-53
2022/07/13 12:39:16;;;;;;;428.73;316.73;;;;;;;;;;5048402;28;20753;-54
2022/07/13 12:41:42;;;;;;;429.52;323.10;;;;;;;;;;5051711;28;20298;-55
2022/07/13 12:44:09;;;;;;;466.92;335.77;;;;;;;;;;5049437;28;20621;-55
2022/07/13 12:46:50;;;;;;;420.70;314.75;;;;;;;;;;5039238;28;20242;-55
2022/07/13 12:49:16;;;;;;;581.85;380.77;;;;;;;;;;5040728;28;20217;-53
2022/07/13 12:51:52;;;;;;;443.52;323.20;;;;;;;;;;5042574;28;20709;-54
2022/07/13 12:54:39;;;;;;;514.05;352.30;;;;;;;;;;5037554;28;20387;-53
2022/07/13 12:57:09;;;;;;;442.52;323.23;;;;;;;;;;5046073;28;20709;-54
2022/07/13 12:59:35;;;;;;;349.08;270.20;;;;;;;;;;5055673;28;20253;-53
2022/07/13 13:02:01;;;;;;;358.88;277.90;;;;;;;;;;5061854;28;20254;-54
2022/07/13 13:04:27;;;;;;;458.17;326.38;;;;;;;;;;5062787;28;21002;-53
2022/07/13 13:06:52;;;;;;;412.30;297.05;;;;;;;;;;5061224;28;20250;-53
2022/07/13 13:09:20;;;;;;;448.27;311.67;;;;;;;;;;5049291;28;20875;-55
2022/07/13 13:11:46;;;;;;;399.70;284.75;;;;;;;;;;5055568;28;20164;-54
2022/07/13 13:14:13;;;;;;;452.35;308.48;;;;;;;;;;5047731;28;20219;-55
2022/07/13 13:16:39;;;;;;;453.05;311.20;;;;;;;;;;5053293;28;20710;-55
2022/07/13 13:19:05;;;;;;;413.05;301.73;;;;;;;;;;5050931;28;20633;-54
2022/07/13 13:21:31;;;;;;;505.13;334.08;;;;;;;;;;5048219;28;20266;-53
2022/07/13 13:23:58;;;;;;;445.58;298.67;;;;;;;;;;5038762;28;20235;-55
2022/07/13 13:26:24;;;;;;;452.60;304.67;;;;;;;;;;5045536;28;20246;-55
2022/07/13 13:31:34;;;;;;;443.60;298.90;;;;;;;;;;5045826;28;20310;-55
2022/07/13 13:34:00;;;;;;;438.63;299.55;;;;;;;;;;5048710;28;20207;-54
2022/07/13 13:36:26;;;;;;;427.40;289.75;;;;;;;;;;5046512;28;20202;-54
2022/07/13 13:38:52;;;;;;;473.70;313.52;;;;;;;;;;5063787;28;20224;-55
2022/07/13 13:41:18;;;;;;;434.45;286.50;;;;;;;;;;5051373;28;20222;-53
2022/07/13 13:43:44;;;;;;;433.98;293.40;;;;;;;;;;5042371;28;20328;-54
2022/07/13 13:46:10;;;;;;;429.00;289.75;;;;;;;;;;5053506;28;20250;-55
2022/07/13 13:48:36;;;;;;;445.75;301.80;;;;;;;;;;5042982;28;20187;-54
2022/07/13 13:51:02;;;;;;;394.13;277.77;;;;;;;;;;5044384;28;20179;-54
2022/07/13 13:53:28;;;;;;;445.52;304.25;;;;;;;;;;5043745;28;20233;-53
2022/07/13 14:00:01;;;;;;;379.95;294.85;;;;;;;;;;5060651;27;20622;-53
2022/07/13 14:02:28;;;;;;;450.20;320.60;;;;;;;;;;5026907;27;20237;-53
2022/07/13 14:04:53;;;;;;;422.52;305.42;;;;;;;;;;5028524;28;20281;-54
2022/07/13 14:07:19;;;;;;;431.77;318.90;;;;;;;;;;5026741;28;20242;-53
2022/07/13 14:09:45;;;;;;;380.92;293.83;;;;;;;;;;5032313;28;20361;-54